sensor_id;sensor_type;location;lat;lon;timestamp;temperature;humidity
27890;DHT22;15238;49.082;9.102;2023-06-14T00:00:24;14.70;91.30
27890;DHT22;15238;49.082;9.102;2023-06-14T00:02:25;14.60;91.40
27890;DHT22;15238;49.082;9.102;2023-06-14T00:04:25;14.60;91.70
27890;DHT22;15238;49.082;9.102;2023-06-14T00:06:26;14.60;91.70
27890;DHT22;15238;49.082;9.102;2023-06-14T00:08:26;14.60;91.80
27890;DHT22;15238;49.082;9.102;2023-06-14T00:10:27;14.50;92.00
27890;DHT22;15238;49.082;9.102;2023-06-14T00:12:31;14.50;92.20
27890;DHT22;15238;49.082;9.102;2023-06-14T00:14:32;14.40;92.40
27890;DHT22;15238;49.082;9.102;2023-06-14T00:16:32;14.40;92.50
27890;DHT22;15238;49.082;9.102;2023-06-14T00:18:35;14.40;93.10
27890;DHT22;15238;49.082;9.102;2023-06-14T00:20:36;14.30;93.00
27890;DHT22;15238;49.082;9.102;2023-06-14T00:22:37;14.30;93.10
27890;DHT22;15238;49.082;9.102;2023-06-14T00:24:39;14.30;93.20
27890;DHT22;15238;49.082;9.102;2023-06-14T00:26:39;14.20;93.20
27890;DHT22;15238;49.082;9.102;2023-06-14T00:28:40;14.20;93.40
27890;DHT22;15238;49.082;9.102;2023-06-14T00:30:41;14.20;93.40
27890;DHT22;15238;49.082;9.102;2023-06-14T00:32:45;14.30;93.40
27890;DHT22;15238;49.082;9.102;2023-06-14T00:34:46;14.30;93.30
27890;DHT22;15238;49.082;9.102;2023-06-14T00:36:46;14.40;93.40
27890;DHT22;15238;49.082;9.102;2023-06-14T00:38:47;14.40;93.30
27890;DHT22;15238;49.082;9.102;2023-06-14T00:40:47;14.50;93.20
27890;DHT22;15238;49.082;9.102;2023-06-14T00:42:48;14.60;93.00
27890;DHT22;15238;49.082;9.102;2023-06-14T00:44:48;14.60;93.10
27890;DHT22;15238;49.082;9.102;2023-06-14T00:46:49;14.60;93.10
27890;DHT22;15238;49.082;9.102;2023-06-14T00:48:50;14.60;92.90
27890;DHT22;15238;49.082;9.102;2023-06-14T00:50:51;14.50;93.00
27890;DHT22;15238;49.082;9.102;2023-06-14T00:52:53;14.50;93.10
27890;DHT22;15238;49.082;9.102;2023-06-14T00:54:53;14.60;93.20
27890;DHT22;15238;49.082;9.102;2023-06-14T00:56:54;14.60;93.40
27890;DHT22;15238;49.082;9.102;2023-06-14T00:58:55;14.60;92.90
27890;DHT22;15238;49.082;9.102;2023-06-14T01:00:56;14.60;93.00
27890;DHT22;15238;49.082;9.102;2023-06-14T01:02:58;14.60;93.10
27890;DHT22;15238;49.082;9.102;2023-06-14T01:04:58;14.60;92.90
27890;DHT22;15238;49.082;9.102;2023-06-14T01:11:26;14.70;93.80
27890;DHT22;15238;49.082;9.102;2023-06-14T01:13:36;14.60;94.10
27890;DHT22;15238;49.082;9.102;2023-06-14T01:15:37;14.60;94.10
27890;DHT22;15238;49.082;9.102;2023-06-14T01:17:39;14.70;94.30
27890;DHT22;15238;49.082;9.102;2023-06-14T01:19:43;14.60;94.30
27890;DHT22;15238;49.082;9.102;2023-06-14T01:21:45;14.60;94.60
27890;DHT22;15238;49.082;9.102;2023-06-14T01:23:46;14.60;94.70
27890;DHT22;15238;49.082;9.102;2023-06-14T01:25:53;14.50;94.70
27890;DHT22;15238;49.082;9.102;2023-06-14T01:27:57;14.50;94.70
27890;DHT22;15238;49.082;9.102;2023-06-14T01:29:58;14.50;94.20
27890;DHT22;15238;49.082;9.102;2023-06-14T01:32:00;14.50;93.80
27890;DHT22;15238;49.082;9.102;2023-06-14T01:34:01;14.40;93.80
27890;DHT22;15238;49.082;9.102;2023-06-14T01:36:02;14.10;94.20
27890;DHT22;15238;49.082;9.102;2023-06-14T01:38:04;14.00;94.60
27890;DHT22;15238;49.082;9.102;2023-06-14T01:40:07;13.90;94.90
27890;DHT22;15238;49.082;9.102;2023-06-14T01:42:09;13.80;95.40
27890;DHT22;15238;49.082;9.102;2023-06-14T01:44:12;13.80;95.40
27890;DHT22;15238;49.082;9.102;2023-06-14T01:46:15;13.80;95.50
27890;DHT22;15238;49.082;9.102;2023-06-14T01:48:16;13.90;95.40
27890;DHT22;15238;49.082;9.102;2023-06-14T01:50:19;13.80;95.60
27890;DHT22;15238;49.082;9.102;2023-06-14T01:52:20;13.80;95.80
27890;DHT22;15238;49.082;9.102;2023-06-14T01:54:22;13.80;95.80
27890;DHT22;15238;49.082;9.102;2023-06-14T01:56:23;13.80;95.70
27890;DHT22;15238;49.082;9.102;2023-06-14T01:58:24;13.80;95.80
27890;DHT22;15238;49.082;9.102;2023-06-14T02:00:24;13.80;96.30
27890;DHT22;15238;49.082;9.102;2023-06-14T02:02:25;13.90;96.60
27890;DHT22;15238;49.082;9.102;2023-06-14T02:04:25;13.90;97.00
27890;DHT22;15238;49.082;9.102;2023-06-14T02:06:26;13.90;97.10
27890;DHT22;15238;49.082;9.102;2023-06-14T02:08:28;13.90;97.20
27890;DHT22;15238;49.082;9.102;2023-06-14T02:10:28;13.90;97.10
27890;DHT22;15238;49.082;9.102;2023-06-14T02:12:29;13.90;96.90
27890;DHT22;15238;49.082;9.102;2023-06-14T02:14:30;13.80;96.80
27890;DHT22;15238;49.082;9.102;2023-06-14T02:16:30;13.80;97.00
27890;DHT22;15238;49.082;9.102;2023-06-14T02:18:31;13.60;97.30
27890;DHT22;15238;49.082;9.102;2023-06-14T02:20:32;13.40;98.00
27890;DHT22;15238;49.082;9.102;2023-06-14T02:22:33;13.20;98.70
27890;DHT22;15238;49.082;9.102;2023-06-14T02:24:33;13.10;98.90
27890;DHT22;15238;49.082;9.102;2023-06-14T02:26:34;12.90;99.60
27890;DHT22;15238;49.082;9.102;2023-06-14T02:28:34;12.80;99.90
27890;DHT22;15238;49.082;9.102;2023-06-14T02:30:35;12.70;99.90
27890;DHT22;15238;49.082;9.102;2023-06-14T02:32:36;12.70;99.90
27890;DHT22;15238;49.082;9.102;2023-06-14T02:34:36;12.70;99.90
27890;DHT22;15238;49.082;9.102;2023-06-14T02:36:37;12.80;99.90
27890;DHT22;15238;49.082;9.102;2023-06-14T02:38:41;12.80;99.90
27890;DHT22;15238;49.082;9.102;2023-06-14T02:40:42;12.80;99.90
27890;DHT22;15238;49.082;9.102;2023-06-14T02:42:42;12.80;99.90
27890;DHT22;15238;49.082;9.102;2023-06-14T02:44:43;12.80;99.90
27890;DHT22;15238;49.082;9.102;2023-06-14T02:46:45;12.80;99.90
27890;DHT22;15238;49.082;9.102;2023-06-14T02:48:46;12.70;99.90
27890;DHT22;15238;49.082;9.102;2023-06-14T02:50:47;12.70;99.90
27890;DHT22;15238;49.082;9.102;2023-06-14T02:52:47;12.70;99.90
27890;DHT22;15238;49.082;9.102;2023-06-14T02:54:48;12.70;99.90
27890;DHT22;15238;49.082;9.102;2023-06-14T02:56:48;12.70;99.90
27890;DHT22;15238;49.082;9.102;2023-06-14T02:58:49;12.70;99.90
27890;DHT22;15238;49.082;9.102;2023-06-14T03:00:49;12.80;99.90
27890;DHT22;15238;49.082;9.102;2023-06-14T03:02:50;12.80;99.90
27890;DHT22;15238;49.082;9.102;2023-06-14T03:04:51;12.80;99.90
27890;DHT22;15238;49.082;9.102;2023-06-14T03:06:52;12.80;99.90
27890;DHT22;15238;49.082;9.102;2023-06-14T03:08:54;12.80;99.90
27890;DHT22;15238;49.082;9.102;2023-06-14T03:10:55;12.80;99.90
27890;DHT22;15238;49.082;9.102;2023-06-14T03:12:56;12.70;99.90
27890;DHT22;15238;49.082;9.102;2023-06-14T03:14:56;12.80;99.90
27890;DHT22;15238;49.082;9.102;2023-06-14T03:16:57;12.80;99.90
27890;DHT22;15238;49.082;9.102;2023-06-14T03:18:57;12.90;99.90
27890;DHT22;15238;49.082;9.102;2023-06-14T03:20:58;12.90;99.90
27890;DHT22;15238;49.082;9.102;2023-06-14T03:23:00;12.90;99.90
27890;DHT22;15238;49.082;9.102;2023-06-14T03:25:01;12.90;99.90
27890;DHT22;15238;49.082;9.102;2023-06-14T03:27:04;12.80;99.90
27890;DHT22;15238;49.082;9.102;2023-06-14T03:29:05;12.90;99.90
27890;DHT22;15238;49.082;9.102;2023-06-14T03:31:05;12.80;99.90
27890;DHT22;15238;49.082;9.102;2023-06-14T03:33:06;12.80;99.90
27890;DHT22;15238;49.082;9.102;2023-06-14T03:35:07;12.80;99.90
27890;DHT22;15238;49.082;9.102;2023-06-14T03:37:08;12.80;99.90
27890;DHT22;15238;49.082;9.102;2023-06-14T03:39:08;12.80;99.90
27890;DHT22;15238;49.082;9.102;2023-06-14T03:41:09;12.80;99.90
27890;DHT22;15238;49.082;9.102;2023-06-14T03:43:10;12.80;99.90
27890;DHT22;15238;49.082;9.102;2023-06-14T03:45:10;12.90;99.90
27890;DHT22;15238;49.082;9.102;2023-06-14T03:47:11;12.90;99.90
27890;DHT22;15238;49.082;9.102;2023-06-14T03:49:12;12.90;99.90
27890;DHT22;15238;49.082;9.102;2023-06-14T03:51:12;13.00;99.90
27890;DHT22;15238;49.082;9.102;2023-06-14T03:53:13;13.00;99.90
27890;DHT22;15238;49.082;9.102;2023-06-14T03:55:13;12.90;99.90
27890;DHT22;15238;49.082;9.102;2023-06-14T03:57:16;12.90;99.90
27890;DHT22;15238;49.082;9.102;2023-06-14T03:59:17;13.00;99.90
27890;DHT22;15238;49.082;9.102;2023-06-14T04:01:17;13.00;99.90
27890;DHT22;15238;49.082;9.102;2023-06-14T04:03:18;13.00;99.90
27890;DHT22;15238;49.082;9.102;2023-06-14T04:05:20;13.10;99.90
27890;DHT22;15238;49.082;9.102;2023-06-14T04:07:20;13.10;99.90
27890;DHT22;15238;49.082;9.102;2023-06-14T04:09:21;13.10;99.90
27890;DHT22;15238;49.082;9.102;2023-06-14T04:11:21;13.20;99.90
27890;DHT22;15238;49.082;9.102;2023-06-14T04:13:22;13.20;99.90
27890;DHT22;15238;49.082;9.102;2023-06-14T04:15:22;13.30;99.90
27890;DHT22;15238;49.082;9.102;2023-06-14T04:17:23;13.40;99.90
27890;DHT22;15238;49.082;9.102;2023-06-14T04:19:23;13.40;99.90
27890;DHT22;15238;49.082;9.102;2023-06-14T04:21:24;13.40;99.90
27890;DHT22;15238;49.082;9.102;2023-06-14T04:23:26;13.40;99.90
27890;DHT22;15238;49.082;9.102;2023-06-14T04:25:28;13.40;99.90
27890;DHT22;15238;49.082;9.102;2023-06-14T04:27:31;13.30;99.90
27890;DHT22;15238;49.082;9.102;2023-06-14T04:29:34;13.30;99.90
27890;DHT22;15238;49.082;9.102;2023-06-14T04:31:35;13.30;99.90
27890;DHT22;15238;49.082;9.102;2023-06-14T04:33:38;13.40;99.90
27890;DHT22;15238;49.082;9.102;2023-06-14T04:35:46;13.50;99.90
27890;DHT22;15238;49.082;9.102;2023-06-14T04:37:47;13.60;99.90
27890;DHT22;15238;49.082;9.102;2023-06-14T04:39:48;13.70;99.90
27890;DHT22;15238;49.082;9.102;2023-06-14T04:41:49;13.80;99.90
27890;DHT22;15238;49.082;9.102;2023-06-14T04:43:57;14.00;99.90
27890;DHT22;15238;49.082;9.102;2023-06-14T04:46:01;14.20;99.90
27890;DHT22;15238;49.082;9.102;2023-06-14T04:48:03;14.30;99.90
27890;DHT22;15238;49.082;9.102;2023-06-14T04:50:05;14.30;99.90
27890;DHT22;15238;49.082;9.102;2023-06-14T04:52:06;14.50;99.90
27890;DHT22;15238;49.082;9.102;2023-06-14T04:54:07;14.60;99.90
27890;DHT22;15238;49.082;9.102;2023-06-14T04:56:10;14.70;99.90
27890;DHT22;15238;49.082;9.102;2023-06-14T04:58:11;14.70;99.90
27890;DHT22;15238;49.082;9.102;2023-06-14T05:00:13;14.70;99.90
27890;DHT22;15238;49.082;9.102;2023-06-14T05:02:14;14.80;99.90
27890;DHT22;15238;49.082;9.102;2023-06-14T05:04:18;14.80;99.90
27890;DHT22;15238;49.082;9.102;2023-06-14T05:06:19;14.90;99.90
27890;DHT22;15238;49.082;9.102;2023-06-14T05:08:20;15.00;99.90
27890;DHT22;15238;49.082;9.102;2023-06-14T05:10:24;15.10;99.90
27890;DHT22;15238;49.082;9.102;2023-06-14T05:12:25;15.10;99.90
27890;DHT22;15238;49.082;9.102;2023-06-14T05:14:26;15.30;99.90
27890;DHT22;15238;49.082;9.102;2023-06-14T05:16:26;15.50;99.90
27890;DHT22;15238;49.082;9.102;2023-06-14T05:18:27;15.40;99.90
27890;DHT22;15238;49.082;9.102;2023-06-14T05:20:28;15.60;99.90
27890;DHT22;15238;49.082;9.102;2023-06-14T05:22:28;15.50;99.90
27890;DHT22;15238;49.082;9.102;2023-06-14T05:24:29;15.70;99.90
27890;DHT22;15238;49.082;9.102;2023-06-14T05:26:32;15.80;99.90
27890;DHT22;15238;49.082;9.102;2023-06-14T05:28:33;15.80;99.90
27890;DHT22;15238;49.082;9.102;2023-06-14T05:30:34;15.90;99.90
27890;DHT22;15238;49.082;9.102;2023-06-14T05:32:34;16.20;99.90
27890;DHT22;15238;49.082;9.102;2023-06-14T05:34:35;16.30;99.90
27890;DHT22;15238;49.082;9.102;2023-06-14T05:36:36;16.50;99.90
27890;DHT22;15238;49.082;9.102;2023-06-14T05:38:37;16.60;98.70
27890;DHT22;15238;49.082;9.102;2023-06-14T05:40:37;16.70;99.00
27890;DHT22;15238;49.082;9.102;2023-06-14T05:42:38;16.90;99.00
27890;DHT22;15238;49.082;9.102;2023-06-14T05:44:38;16.90;98.80
27890;DHT22;15238;49.082;9.102;2023-06-14T05:46:39;17.20;96.40
27890;DHT22;15238;49.082;9.102;2023-06-14T05:48:40;17.40;95.10
27890;DHT22;15238;49.082;9.102;2023-06-14T05:50:40;17.60;95.30
27890;DHT22;15238;49.082;9.102;2023-06-14T05:52:41;17.70;94.40
27890;DHT22;15238;49.082;9.102;2023-06-14T05:54:41;17.90;93.80
27890;DHT22;15238;49.082;9.102;2023-06-14T05:56:42;18.10;93.60
27890;DHT22;15238;49.082;9.102;2023-06-14T05:58:42;18.30;93.80
27890;DHT22;15238;49.082;9.102;2023-06-14T06:00:43;18.40;92.70
27890;DHT22;15238;49.082;9.102;2023-06-14T06:02:44;18.50;92.70
27890;DHT22;15238;49.082;9.102;2023-06-14T06:04:46;18.60;92.40
27890;DHT22;15238;49.082;9.102;2023-06-14T06:06:47;18.70;93.00
27890;DHT22;15238;49.082;9.102;2023-06-14T06:08:48;18.90;91.80
27890;DHT22;15238;49.082;9.102;2023-06-14T06:10:48;19.00;91.30
27890;DHT22;15238;49.082;9.102;2023-06-14T06:12:49;18.90;91.70
27890;DHT22;15238;49.082;9.102;2023-06-14T06:14:52;18.80;92.50
27890;DHT22;15238;49.082;9.102;2023-06-14T06:16:53;19.00;91.80
27890;DHT22;15238;49.082;9.102;2023-06-14T06:18:54;19.20;90.80
27890;DHT22;15238;49.082;9.102;2023-06-14T06:20:54;19.40;90.90
27890;DHT22;15238;49.082;9.102;2023-06-14T06:22:56;19.50;90.80
27890;DHT22;15238;49.082;9.102;2023-06-14T06:24:56;19.40;89.40
27890;DHT22;15238;49.082;9.102;2023-06-14T06:26:57;19.30;90.10
27890;DHT22;15238;49.082;9.102;2023-06-14T06:29:01;19.30;90.30
27890;DHT22;15238;49.082;9.102;2023-06-14T06:31:01;19.20;90.60
27890;DHT22;15238;49.082;9.102;2023-06-14T06:33:03;19.30;90.50
27890;DHT22;15238;49.082;9.102;2023-06-14T06:35:04;19.40;90.30
27890;DHT22;15238;49.082;9.102;2023-06-14T06:37:06;19.30;89.60
27890;DHT22;15238;49.082;9.102;2023-06-14T06:39:07;19.40;90.00
27890;DHT22;15238;49.082;9.102;2023-06-14T06:41:10;19.40;91.10
27890;DHT22;15238;49.082;9.102;2023-06-14T06:43:11;19.70;90.70
27890;DHT22;15238;49.082;9.102;2023-06-14T06:45:14;20.00;90.30
27890;DHT22;15238;49.082;9.102;2023-06-14T06:47:14;20.20;90.00
27890;DHT22;15238;49.082;9.102;2023-06-14T06:49:15;20.10;88.40
27890;DHT22;15238;49.082;9.102;2023-06-14T06:51:15;20.20;88.00
27890;DHT22;15238;49.082;9.102;2023-06-14T06:53:16;20.30;88.20
27890;DHT22;15238;49.082;9.102;2023-06-14T06:55:18;20.40;88.90
27890;DHT22;15238;49.082;9.102;2023-06-14T06:57:19;20.20;90.10
27890;DHT22;15238;49.082;9.102;2023-06-14T06:59:20;20.30;87.70
27890;DHT22;15238;49.082;9.102;2023-06-14T07:01:21;20.20;90.00
27890;DHT22;15238;49.082;9.102;2023-06-14T07:03:22;20.00;88.50
27890;DHT22;15238;49.082;9.102;2023-06-14T07:05:22;20.00;88.40
27890;DHT22;15238;49.082;9.102;2023-06-14T07:07:23;19.90;89.80
27890;DHT22;15238;49.082;9.102;2023-06-14T07:09:24;19.90;89.40
27890;DHT22;15238;49.082;9.102;2023-06-14T07:11:24;20.00;90.10
27890;DHT22;15238;49.082;9.102;2023-06-14T07:13:25;19.90;90.40
27890;DHT22;15238;49.082;9.102;2023-06-14T07:15:25;20.10;90.90
27890;DHT22;15238;49.082;9.102;2023-06-14T07:17:26;20.50;89.70
27890;DHT22;15238;49.082;9.102;2023-06-14T07:19:26;20.60;88.70
27890;DHT22;15238;49.082;9.102;2023-06-14T07:21:27;20.50;89.30
27890;DHT22;15238;49.082;9.102;2023-06-14T07:23:27;20.80;87.40
27890;DHT22;15238;49.082;9.102;2023-06-14T07:25:28;20.50;87.70
27890;DHT22;15238;49.082;9.102;2023-06-14T07:27:28;20.40;87.90
27890;DHT22;15238;49.082;9.102;2023-06-14T07:29:29;20.00;90.10
27890;DHT22;15238;49.082;9.102;2023-06-14T07:31:29;20.40;89.40
27890;DHT22;15238;49.082;9.102;2023-06-14T07:33:30;20.10;90.30
27890;DHT22;15238;49.082;9.102;2023-06-14T07:35:31;20.50;90.40
27890;DHT22;15238;49.082;9.102;2023-06-14T07:37:31;20.50;88.60
27890;DHT22;15238;49.082;9.102;2023-06-14T07:39:32;20.70;89.10
27890;DHT22;15238;49.082;9.102;2023-06-14T07:41:32;20.70;87.30
27890;DHT22;15238;49.082;9.102;2023-06-14T07:43:33;20.40;88.70
27890;DHT22;15238;49.082;9.102;2023-06-14T07:45:34;20.30;88.20
27890;DHT22;15238;49.082;9.102;2023-06-14T07:47:34;20.60;89.40
27890;DHT22;15238;49.082;9.102;2023-06-14T07:49:35;21.00;85.90
27890;DHT22;15238;49.082;9.102;2023-06-14T07:51:35;21.40;87.70
27890;DHT22;15238;49.082;9.102;2023-06-14T07:53:36;21.50;87.10
27890;DHT22;15238;49.082;9.102;2023-06-14T07:55:36;21.60;86.20
27890;DHT22;15238;49.082;9.102;2023-06-14T07:57:38;21.60;83.80
27890;DHT22;15238;49.082;9.102;2023-06-14T07:59:38;21.70;83.90
27890;DHT22;15238;49.082;9.102;2023-06-14T08:01:39;22.00;82.70
27890;DHT22;15238;49.082;9.102;2023-06-14T08:03:40;21.90;82.70
27890;DHT22;15238;49.082;9.102;2023-06-14T08:05:40;21.80;82.60
27890;DHT22;15238;49.082;9.102;2023-06-14T08:07:41;21.80;83.20
27890;DHT22;15238;49.082;9.102;2023-06-14T08:09:42;21.80;82.20
27890;DHT22;15238;49.082;9.102;2023-06-14T08:11:42;21.80;82.50
27890;DHT22;15238;49.082;9.102;2023-06-14T08:13:43;22.10;81.20
27890;DHT22;15238;49.082;9.102;2023-06-14T08:15:43;22.10;81.80
27890;DHT22;15238;49.082;9.102;2023-06-14T08:17:44;22.10;81.80
27890;DHT22;15238;49.082;9.102;2023-06-14T08:19:45;21.90;82.60
27890;DHT22;15238;49.082;9.102;2023-06-14T08:21:46;22.30;83.70
27890;DHT22;15238;49.082;9.102;2023-06-14T08:23:47;22.40;81.00
27890;DHT22;15238;49.082;9.102;2023-06-14T08:25:48;22.40;81.10
27890;DHT22;15238;49.082;9.102;2023-06-14T08:27:49;22.50;80.80
27890;DHT22;15238;49.082;9.102;2023-06-14T08:29:50;22.80;80.00
27890;DHT22;15238;49.082;9.102;2023-06-14T08:31:51;22.80;80.40
27890;DHT22;15238;49.082;9.102;2023-06-14T08:33:52;22.10;79.70
27890;DHT22;15238;49.082;9.102;2023-06-14T08:35:53;22.00;81.60
27890;DHT22;15238;49.082;9.102;2023-06-14T08:37:54;22.10;81.20
27890;DHT22;15238;49.082;9.102;2023-06-14T08:39:54;22.20;80.60
27890;DHT22;15238;49.082;9.102;2023-06-14T08:41:56;22.00;80.70
27890;DHT22;15238;49.082;9.102;2023-06-14T08:43:57;22.30;80.10
27890;DHT22;15238;49.082;9.102;2023-06-14T08:46:02;22.20;78.50
27890;DHT22;15238;49.082;9.102;2023-06-14T08:48:05;22.20;79.90
27890;DHT22;15238;49.082;9.102;2023-06-14T08:50:07;22.60;78.10
27890;DHT22;15238;49.082;9.102;2023-06-14T08:52:09;22.80;77.90
27890;DHT22;15238;49.082;9.102;2023-06-14T08:54:11;22.70;80.60
27890;DHT22;15238;49.082;9.102;2023-06-14T08:56:13;23.00;77.70
27890;DHT22;15238;49.082;9.102;2023-06-14T08:58:14;23.10;78.30
27890;DHT22;15238;49.082;9.102;2023-06-14T09:00:15;23.40;76.10
27890;DHT22;15238;49.082;9.102;2023-06-14T09:02:16;23.80;73.80
27890;DHT22;15238;49.082;9.102;2023-06-14T09:04:18;24.00;72.70
27890;DHT22;15238;49.082;9.102;2023-06-14T09:06:20;24.30;71.40
27890;DHT22;15238;49.082;9.102;2023-06-14T09:08:23;24.50;71.70
27890;DHT22;15238;49.082;9.102;2023-06-14T09:10:26;24.30;73.30
27890;DHT22;15238;49.082;9.102;2023-06-14T09:12:27;24.30;71.70
27890;DHT22;15238;49.082;9.102;2023-06-14T09:14:28;24.10;72.20
27890;DHT22;15238;49.082;9.102;2023-06-14T09:16:28;24.00;71.20
27890;DHT22;15238;49.082;9.102;2023-06-14T09:18:40;24.20;71.60
27890;DHT22;15238;49.082;9.102;2023-06-14T09:20:48;24.60;70.90
27890;DHT22;15238;49.082;9.102;2023-06-14T09:22:48;24.60;71.10
27890;DHT22;15238;49.082;9.102;2023-06-14T09:24:49;24.60;72.10
27890;DHT22;15238;49.082;9.102;2023-06-14T09:26:53;24.70;72.50
27890;DHT22;15238;49.082;9.102;2023-06-14T09:28:54;24.50;71.70
27890;DHT22;15238;49.082;9.102;2023-06-14T09:30:57;24.10;72.40
27890;DHT22;15238;49.082;9.102;2023-06-14T09:32:57;23.90;71.90
27890;DHT22;15238;49.082;9.102;2023-06-14T09:34:58;24.10;72.40
27890;DHT22;15238;49.082;9.102;2023-06-14T09:36:58;24.30;71.90
27890;DHT22;15238;49.082;9.102;2023-06-14T09:39:00;24.20;70.30
27890;DHT22;15238;49.082;9.102;2023-06-14T09:41:04;24.40;70.50
27890;DHT22;15238;49.082;9.102;2023-06-14T09:43:06;24.30;72.40
27890;DHT22;15238;49.082;9.102;2023-06-14T09:45:10;24.40;69.40
27890;DHT22;15238;49.082;9.102;2023-06-14T09:47:12;24.30;70.50
27890;DHT22;15238;49.082;9.102;2023-06-14T09:49:13;24.00;69.80
27890;DHT22;15238;49.082;9.102;2023-06-14T09:51:15;24.00;70.60
27890;DHT22;15238;49.082;9.102;2023-06-14T09:53:21;24.20;65.90
27890;DHT22;15238;49.082;9.102;2023-06-14T09:55:24;24.50;65.40
27890;DHT22;15238;49.082;9.102;2023-06-14T09:57:28;24.80;66.30
27890;DHT22;15238;49.082;9.102;2023-06-14T09:59:32;24.60;65.00
27890;DHT22;15238;49.082;9.102;2023-06-14T10:01:35;25.00;66.40
27890;DHT22;15238;49.082;9.102;2023-06-14T10:03:36;25.30;62.90
27890;DHT22;15238;49.082;9.102;2023-06-14T10:05:41;25.60;63.40
27890;DHT22;15238;49.082;9.102;2023-06-14T10:07:52;25.20;62.90
27890;DHT22;15238;49.082;9.102;2023-06-14T10:09:54;25.30;64.60
27890;DHT22;15238;49.082;9.102;2023-06-14T10:11:55;25.50;62.30
27890;DHT22;15238;49.082;9.102;2023-06-14T10:13:57;25.30;63.00
27890;DHT22;15238;49.082;9.102;2023-06-14T10:16:15;25.50;59.50
27890;DHT22;15238;49.082;9.102;2023-06-14T10:20:42;24.60;58.10
27890;DHT22;15238;49.082;9.102;2023-06-14T10:22:47;24.80;59.20
27890;DHT22;15238;49.082;9.102;2023-06-14T10:24:49;25.10;57.50
27890;DHT22;15238;49.082;9.102;2023-06-14T10:26:53;25.50;59.80
27890;DHT22;15238;49.082;9.102;2023-06-14T10:28:58;25.60;59.90
27890;DHT22;15238;49.082;9.102;2023-06-14T10:31:10;25.60;58.20
27890;DHT22;15238;49.082;9.102;2023-06-14T10:33:15;25.70;56.90
27890;DHT22;15238;49.082;9.102;2023-06-14T10:35:16;25.70;59.40
27890;DHT22;15238;49.082;9.102;2023-06-14T10:37:16;25.40;57.30
27890;DHT22;15238;49.082;9.102;2023-06-14T10:39:17;25.20;55.70
27890;DHT22;15238;49.082;9.102;2023-06-14T10:41:18;25.60;55.50
27890;DHT22;15238;49.082;9.102;2023-06-14T10:43:23;25.40;59.40
27890;DHT22;15238;49.082;9.102;2023-06-14T10:45:24;24.50;58.70
27890;DHT22;15238;49.082;9.102;2023-06-14T10:47:32;24.50;59.80
27890;DHT22;15238;49.082;9.102;2023-06-14T10:49:44;24.90;58.90
27890;DHT22;15238;49.082;9.102;2023-06-14T10:51:51;25.50;58.00
27890;DHT22;15238;49.082;9.102;2023-06-14T10:53:57;25.90;58.70
27890;DHT22;15238;49.082;9.102;2023-06-14T10:56:06;25.80;57.40
27890;DHT22;15238;49.082;9.102;2023-06-14T10:58:07;25.70;56.30
27890;DHT22;15238;49.082;9.102;2023-06-14T11:00:09;26.10;55.20
27890;DHT22;15238;49.082;9.102;2023-06-14T11:06:49;25.30;57.50
27890;DHT22;15238;49.082;9.102;2023-06-14T11:11:09;26.30;55.30
27890;DHT22;15238;49.082;9.102;2023-06-14T11:13:11;26.80;54.60
27890;DHT22;15238;49.082;9.102;2023-06-14T11:15:12;27.10;54.60
27890;DHT22;15238;49.082;9.102;2023-06-14T11:17:12;27.30;55.00
27890;DHT22;15238;49.082;9.102;2023-06-14T11:19:13;26.70;54.90
27890;DHT22;15238;49.082;9.102;2023-06-14T11:21:17;26.90;54.50
27890;DHT22;15238;49.082;9.102;2023-06-14T11:23:21;26.60;53.90
27890;DHT22;15238;49.082;9.102;2023-06-14T11:25:22;26.60;55.30
27890;DHT22;15238;49.082;9.102;2023-06-14T11:27:23;26.50;54.90
27890;DHT22;15238;49.082;9.102;2023-06-14T11:29:29;26.60;54.00
27890;DHT22;15238;49.082;9.102;2023-06-14T11:31:29;26.60;55.10
27890;DHT22;15238;49.082;9.102;2023-06-14T11:33:30;26.80;55.10
27890;DHT22;15238;49.082;9.102;2023-06-14T11:35:31;26.50;57.10
27890;DHT22;15238;49.082;9.102;2023-06-14T11:37:32;26.40;56.40
27890;DHT22;15238;49.082;9.102;2023-06-14T11:39:37;25.80;57.30
27890;DHT22;15238;49.082;9.102;2023-06-14T11:41:45;26.00;56.40
27890;DHT22;15238;49.082;9.102;2023-06-14T11:43:45;26.30;55.30
27890;DHT22;15238;49.082;9.102;2023-06-14T11:45:48;26.60;54.10
27890;DHT22;15238;49.082;9.102;2023-06-14T11:47:49;26.80;55.00
27890;DHT22;15238;49.082;9.102;2023-06-14T11:49:50;26.80;54.50
27890;DHT22;15238;49.082;9.102;2023-06-14T11:51:50;27.10;54.80
27890;DHT22;15238;49.082;9.102;2023-06-14T11:53:53;27.10;52.70
27890;DHT22;15238;49.082;9.102;2023-06-14T11:55:54;26.80;54.00
27890;DHT22;15238;49.082;9.102;2023-06-14T11:57:55;26.80;56.10
27890;DHT22;15238;49.082;9.102;2023-06-14T11:59:55;26.70;53.30
27890;DHT22;15238;49.082;9.102;2023-06-14T12:01:56;26.40;53.10
27890;DHT22;15238;49.082;9.102;2023-06-14T12:03:56;26.60;53.50
27890;DHT22;15238;49.082;9.102;2023-06-14T12:06:07;26.90;53.90
27890;DHT22;15238;49.082;9.102;2023-06-14T12:08:08;27.00;53.60
27890;DHT22;15238;49.082;9.102;2023-06-14T12:10:09;26.70;55.00
27890;DHT22;15238;49.082;9.102;2023-06-14T12:12:12;26.80;55.60
27890;DHT22;15238;49.082;9.102;2023-06-14T12:14:12;26.40;55.90
27890;DHT22;15238;49.082;9.102;2023-06-14T12:16:13;26.30;55.80
27890;DHT22;15238;49.082;9.102;2023-06-14T12:18:13;25.70;57.20
27890;DHT22;15238;49.082;9.102;2023-06-14T12:20:14;25.90;55.40
27890;DHT22;15238;49.082;9.102;2023-06-14T12:22:17;26.30;54.60
27890;DHT22;15238;49.082;9.102;2023-06-14T12:24:17;26.50;52.80
27890;DHT22;15238;49.082;9.102;2023-06-14T12:26:19;26.40;52.60
27890;DHT22;15238;49.082;9.102;2023-06-14T12:28:20;26.50;52.60
27890;DHT22;15238;49.082;9.102;2023-06-14T12:30:20;26.90;52.40
27890;DHT22;15238;49.082;9.102;2023-06-14T12:32:21;27.40;51.10
27890;DHT22;15238;49.082;9.102;2023-06-14T12:34:21;27.80;51.20
27890;DHT22;15238;49.082;9.102;2023-06-14T12:36:22;28.10;50.70
27890;DHT22;15238;49.082;9.102;2023-06-14T12:38:23;27.90;52.90
27890;DHT22;15238;49.082;9.102;2023-06-14T12:40:23;27.10;54.50
27890;DHT22;15238;49.082;9.102;2023-06-14T12:42:24;26.70;56.10
27890;DHT22;15238;49.082;9.102;2023-06-14T12:44:25;26.50;57.20
27890;DHT22;15238;49.082;9.102;2023-06-14T12:46:26;26.10;55.70
27890;DHT22;15238;49.082;9.102;2023-06-14T12:48:26;25.90;55.70
27890;DHT22;15238;49.082;9.102;2023-06-14T12:50:31;25.60;56.20
27890;DHT22;15238;49.082;9.102;2023-06-14T12:52:32;25.40;55.80
27890;DHT22;15238;49.082;9.102;2023-06-14T12:54:36;25.10;55.40
27890;DHT22;15238;49.082;9.102;2023-06-14T12:56:36;25.10;55.40
27890;DHT22;15238;49.082;9.102;2023-06-14T12:58:37;25.80;55.10
27890;DHT22;15238;49.082;9.102;2023-06-14T13:00:37;26.20;54.20